sensor_id;sensor_type;location;lat;lon;timestamp;P1;durP1;ratioP1;P2;durP2;ratioP2
46931;SDS011;32670;51.464;11.964;2023-08-06T00:01:47;3.67;;;2.40;;
46931;SDS011;32670;51.464;11.964;2023-08-06T00:04:12;3.23;;;1.97;;
46931;SDS011;32670;51.464;11.964;2023-08-06T00:06:37;2.30;;;2.10;;
46931;SDS011;32670;51.464;11.964;2023-08-06T00:09:03;3.03;;;2.30;;
46931;SDS011;32670;51.464;11.964;2023-08-06T00:11:28;3.90;;;1.90;;
46931;SDS011;32670;51.464;11.964;2023-08-06T00:13:54;4.37;;;2.03;;
46931;SDS011;32670;51.464;11.964;2023-08-06T00:16:19;4.23;;;2.30;;
46931;SDS011;32670;51.464;11.964;2023-08-06T00:18:45;5.40;;;2.17;;
46931;SDS011;32670;51.464;11.964;2023-08-06T00:21:10;2.63;;;1.83;;
46931;SDS011;32670;51.464;11.964;2023-08-06T00:23:37;2.20;;;2.00;;
46931;SDS011;32670;51.464;11.964;2023-08-06T00:26:03;2.20;;;2.00;;
46931;SDS011;32670;51.464;11.964;2023-08-06T00:28:28;2.50;;;2.27;;
46931;SDS011;32670;51.464;11.964;2023-08-06T00:30:54;2.53;;;2.17;;
46931;SDS011;32670;51.464;11.964;2023-08-06T00:33:21;2.40;;;2.20;;
46931;SDS011;32670;51.464;11.964;2023-08-06T00:35:50;2.50;;;2.30;;
46931;SDS011;32670;51.464;11.964;2023-08-06T00:38:15;2.50;;;2.10;;
46931;SDS011;32670;51.464;11.964;2023-08-06T00:40:41;2.70;;;2.00;;
46931;SDS011;32670;51.464;11.964;2023-08-06T00:43:06;2.20;;;1.80;;
46931;SDS011;32670;51.464;11.964;2023-08-06T00:45:36;3.40;;;2.40;;
46931;SDS011;32670;51.464;11.964;2023-08-06T00:48:02;2.93;;;2.20;;
46931;SDS011;32670;51.464;11.964;2023-08-06T00:50:30;2.23;;;2.00;;
46931;SDS011;32670;51.464;11.964;2023-08-06T00:52:56;2.60;;;2.40;;
46931;SDS011;32670;51.464;11.964;2023-08-06T00:55:22;3.53;;;2.13;;
46931;SDS011;32670;51.464;11.964;2023-08-06T00:57:48;2.30;;;1.90;;
46931;SDS011;32670;51.464;11.964;2023-08-06T01:00:15;2.30;;;2.10;;
46931;SDS011;32670;51.464;11.964;2023-08-06T01:02:40;3.73;;;2.13;;
46931;SDS011;32670;51.464;11.964;2023-08-06T01:05:06;4.50;;;2.20;;
46931;SDS011;32670;51.464;11.964;2023-08-06T01:13:16;2.77;;;1.70;;
46931;SDS011;32670;51.464;11.964;2023-08-06T01:15:54;3.20;;;1.90;;
46931;SDS011;32670;51.464;11.964;2023-08-06T01:18:24;2.10;;;1.90;;
46931;SDS011;32670;51.464;11.964;2023-08-06T01:20:50;2.03;;;1.70;;
46931;SDS011;32670;51.464;11.964;2023-08-06T01:23:16;1.93;;;1.73;;
46931;SDS011;32670;51.464;11.964;2023-08-06T01:25:46;2.23;;;1.93;;
46931;SDS011;32670;51.464;11.964;2023-08-06T01:28:26;1.80;;;1.50;;
46931;SDS011;32670;51.464;11.964;2023-08-06T01:30:59;1.50;;;1.40;;
46931;SDS011;32670;51.464;11.964;2023-08-06T01:33:28;1.50;;;1.40;;
46931;SDS011;32670;51.464;11.964;2023-08-06T01:35:57;1.60;;;1.50;;
46931;SDS011;32670;51.464;11.964;2023-08-06T01:38:23;1.50;;;1.40;;
46931;SDS011;32670;51.464;11.964;2023-08-06T01:40:49;1.47;;;1.37;;
46931;SDS011;32670;51.464;11.964;2023-08-06T01:43:15;1.60;;;1.50;;
46931;SDS011;32670;51.464;11.964;2023-08-06T01:45:40;1.50;;;1.40;;
46931;SDS011;32670;51.464;11.964;2023-08-06T01:48:06;2.93;;;1.20;;
46931;SDS011;32670;51.464;11.964;2023-08-06T01:50:31;2.80;;;1.40;;
46931;SDS011;32670;51.464;11.964;2023-08-06T01:52:57;2.77;;;1.60;;
46931;SDS011;32670;51.464;11.964;2023-08-06T01:55:22;1.40;;;1.30;;
46931;SDS011;32670;51.464;11.964;2023-08-06T01:57:47;1.43;;;1.33;;
46931;SDS011;32670;51.464;11.964;2023-08-06T02:00:13;2.80;;;1.30;;
46931;SDS011;32670;51.464;11.964;2023-08-06T02:02:39;1.80;;;1.23;;
46931;SDS011;32670;51.464;11.964;2023-08-06T02:05:05;1.43;;;1.33;;
46931;SDS011;32670;51.464;11.964;2023-08-06T02:07:31;1.30;;;1.20;;
46931;SDS011;32670;51.464;11.964;2023-08-06T02:09:57;1.20;;;1.00;;
46931;SDS011;32670;51.464;11.964;2023-08-06T02:12:22;1.10;;;1.10;;
46931;SDS011;32670;51.464;11.964;2023-08-06T02:14:47;1.50;;;1.33;;
46931;SDS011;32670;51.464;11.964;2023-08-06T02:17:13;1.20;;;1.10;;
46931;SDS011;32670;51.464;11.964;2023-08-06T02:19:38;2.03;;;1.40;;
46931;SDS011;32670;51.464;11.964;2023-08-06T02:22:04;1.50;;;1.40;;
46931;SDS011;32670;51.464;11.964;2023-08-06T02:24:30;1.00;;;1.00;;
46931;SDS011;32670;51.464;11.964;2023-08-06T02:26:55;1.07;;;1.00;;
46931;SDS011;32670;51.464;11.964;2023-08-06T02:29:21;1.60;;;1.20;;
46931;SDS011;32670;51.464;11.964;2023-08-06T02:31:46;1.53;;;1.10;;
46931;SDS011;32670;51.464;11.964;2023-08-06T02:34:12;1.27;;;1.17;;
46931;SDS011;32670;51.464;11.964;2023-08-06T02:36:37;2.23;;;1.10;;
46931;SDS011;32670;51.464;11.964;2023-08-06T02:39:03;1.17;;;1.07;;
46931;SDS011;32670;51.464;11.964;2023-08-06T02:41:28;1.00;;;0.90;;
46931;SDS011;32670;51.464;11.964;2023-08-06T02:43:54;1.03;;;1.00;;
46931;SDS011;32670;51.464;11.964;2023-08-06T02:46:19;2.10;;;1.10;;
46931;SDS011;32670;51.464;11.964;2023-08-06T02:48:45;1.23;;;1.13;;
46931;SDS011;32670;51.464;11.964;2023-08-06T02:51:10;1.07;;;1.00;;
46931;SDS011;32670;51.464;11.964;2023-08-06T02:53:36;1.07;;;1.07;;
46931;SDS011;32670;51.464;11.964;2023-08-06T02:56:01;1.00;;;1.00;;
46931;SDS011;32670;51.464;11.964;2023-08-06T02:58:27;2.20;;;1.00;;
46931;SDS011;32670;51.464;11.964;2023-08-06T03:00:59;1.40;;;1.23;;
46931;SDS011;32670;51.464;11.964;2023-08-06T03:03:29;1.77;;;1.20;;
46931;SDS011;32670;51.464;11.964;2023-08-06T03:05:55;1.10;;;1.00;;
46931;SDS011;32670;51.464;11.964;2023-08-06T03:08:21;1.00;;;1.00;;
46931;SDS011;32670;51.464;11.964;2023-08-06T03:10:47;1.13;;;1.00;;
46931;SDS011;32670;51.464;11.964;2023-08-06T03:13:14;1.17;;;1.07;;
46931;SDS011;32670;51.464;11.964;2023-08-06T03:15:40;1.30;;;1.20;;
46931;SDS011;32670;51.464;11.964;2023-08-06T03:18:05;1.83;;;1.00;;
46931;SDS011;32670;51.464;11.964;2023-08-06T03:20:31;1.10;;;1.00;;
46931;SDS011;32670;51.464;11.964;2023-08-06T03:22:57;1.20;;;1.10;;
46931;SDS011;32670;51.464;11.964;2023-08-06T03:25:23;2.27;;;1.20;;
46931;SDS011;32670;51.464;11.964;2023-08-06T03:27:48;1.77;;;1.40;;
46931;SDS011;32670;51.464;11.964;2023-08-06T03:30:14;1.27;;;1.23;;
46931;SDS011;32670;51.464;11.964;2023-08-06T03:32:39;1.40;;;1.30;;
46931;SDS011;32670;51.464;11.964;2023-08-06T03:35:05;1.30;;;1.20;;
46931;SDS011;32670;51.464;11.964;2023-08-06T03:37:30;1.50;;;1.20;;
46931;SDS011;32670;51.464;11.964;2023-08-06T03:39:56;1.47;;;1.30;;
46931;SDS011;32670;51.464;11.964;2023-08-06T03:42:21;1.30;;;1.13;;
46931;SDS011;32670;51.464;11.964;2023-08-06T03:44:47;2.53;;;1.23;;
46931;SDS011;32670;51.464;11.964;2023-08-06T03:47:13;2.17;;;1.50;;
46931;SDS011;32670;51.464;11.964;2023-08-06T03:49:38;1.63;;;1.50;;
46931;SDS011;32670;51.464;11.964;2023-08-06T03:52:04;3.43;;;1.60;;
46931;SDS011;32670;51.464;11.964;2023-08-06T03:54:30;2.13;;;1.57;;
46931;SDS011;32670;51.464;11.964;2023-08-06T03:56:56;1.73;;;1.47;;
46931;SDS011;32670;51.464;11.964;2023-08-06T03:59:21;1.73;;;1.37;;
46931;SDS011;32670;51.464;11.964;2023-08-06T04:01:47;2.27;;;1.30;;
46931;SDS011;32670;51.464;11.964;2023-08-06T04:04:12;1.57;;;1.47;;
46931;SDS011;32670;51.464;11.964;2023-08-06T04:06:38;1.47;;;1.10;;
46931;SDS011;32670;51.464;11.964;2023-08-06T04:09:03;1.47;;;1.37;;
46931;SDS011;32670;51.464;11.964;2023-08-06T04:11:29;1.90;;;1.40;;
46931;SDS011;32670;51.464;11.964;2023-08-06T04:13:54;1.30;;;1.20;;
46931;SDS011;32670;51.464;11.964;2023-08-06T04:16:20;1.30;;;1.20;;
46931;SDS011;32670;51.464;11.964;2023-08-06T04:18:46;1.77;;;1.30;;
46931;SDS011;32670;51.464;11.964;2023-08-06T04:21:11;1.60;;;1.30;;
46931;SDS011;32670;51.464;11.964;2023-08-06T04:23:37;1.40;;;1.30;;
46931;SDS011;32670;51.464;11.964;2023-08-06T04:26:03;4.13;;;1.43;;
46931;SDS011;32670;51.464;11.964;2023-08-06T04:28:28;1.87;;;1.30;;
46931;SDS011;32670;51.464;11.964;2023-08-06T04:30:54;1.90;;;1.30;;
46931;SDS011;32670;51.464;11.964;2023-08-06T04:33:20;1.60;;;1.13;;
46931;SDS011;32670;51.464;11.964;2023-08-06T04:35:45;2.37;;;1.20;;
46931;SDS011;32670;51.464;11.964;2023-08-06T04:38:11;1.40;;;1.30;;
46931;SDS011;32670;51.464;11.964;2023-08-06T04:40:36;1.73;;;1.33;;
46931;SDS011;32670;51.464;11.964;2023-08-06T04:43:02;1.20;;;1.10;;
46931;SDS011;32670;51.464;11.964;2023-08-06T04:45:27;1.40;;;1.20;;
46931;SDS011;32670;51.464;11.964;2023-08-06T04:47:53;1.03;;;1.03;;
46931;SDS011;32670;51.464;11.964;2023-08-06T04:50:21;2.97;;;1.10;;
46931;SDS011;32670;51.464;11.964;2023-08-06T04:52:47;1.07;;;0.80;;
46931;SDS011;32670;51.464;11.964;2023-08-06T04:55:12;1.20;;;1.10;;
46931;SDS011;32670;51.464;11.964;2023-08-06T04:57:38;1.23;;;1.07;;
46931;SDS011;32670;51.464;11.964;2023-08-06T05:00:03;1.10;;;0.90;;
46931;SDS011;32670;51.464;11.964;2023-08-06T05:02:30;1.20;;;1.10;;
46931;SDS011;32670;51.464;11.964;2023-08-06T05:04:57;2.67;;;0.90;;
46931;SDS011;32670;51.464;11.964;2023-08-06T05:07:23;1.07;;;0.90;;
46931;SDS011;32670;51.464;11.964;2023-08-06T05:09:48;1.23;;;1.13;;
46931;SDS011;32670;51.464;11.964;2023-08-06T05:12:14;1.17;;;1.00;;
46931;SDS011;32670;51.464;11.964;2023-08-06T05:14:39;0.90;;;0.90;;
46931;SDS011;32670;51.464;11.964;2023-08-06T05:17:05;1.17;;;1.07;;
46931;SDS011;32670;51.464;11.964;2023-08-06T05:19:30;1.10;;;1.00;;
46931;SDS011;32670;51.464;11.964;2023-08-06T05:21:56;0.87;;;0.83;;
46931;SDS011;32670;51.464;11.964;2023-08-06T05:24:21;1.43;;;0.93;;
46931;SDS011;32670;51.464;11.964;2023-08-06T05:26:47;1.20;;;1.10;;
46931;SDS011;32670;51.464;11.964;2023-08-06T05:29:12;2.70;;;1.10;;
46931;SDS011;32670;51.464;11.964;2023-08-06T05:31:38;0.90;;;0.90;;
46931;SDS011;32670;51.464;11.964;2023-08-06T05:34:04;1.20;;;1.03;;
46931;SDS011;32670;51.464;11.964;2023-08-06T05:36:29;2.00;;;1.00;;
46931;SDS011;32670;51.464;11.964;2023-08-06T05:38:54;3.97;;;1.20;;
46931;SDS011;32670;51.464;11.964;2023-08-06T05:41:20;1.00;;;1.00;;
46931;SDS011;32670;51.464;11.964;2023-08-06T05:43:45;1.10;;;1.00;;
46931;SDS011;32670;51.464;11.964;2023-08-06T05:46:11;1.57;;;1.00;;
46931;SDS011;32670;51.464;11.964;2023-08-06T05:48:36;2.03;;;1.00;;
46931;SDS011;32670;51.464;11.964;2023-08-06T05:51:02;1.10;;;1.00;;
46931;SDS011;32670;51.464;11.964;2023-08-06T05:53:28;2.30;;;0.90;;
46931;SDS011;32670;51.464;11.964;2023-08-06T05:55:53;1.00;;;0.87;;
46931;SDS011;32670;51.464;11.964;2023-08-06T05:58:19;1.10;;;1.00;;
46931;SDS011;32670;51.464;11.964;2023-08-06T06:00:45;1.17;;;1.00;;
46931;SDS011;32670;51.464;11.964;2023-08-06T06:03:11;1.37;;;1.13;;
46931;SDS011;32670;51.464;11.964;2023-08-06T06:05:39;2.37;;;1.10;;
46931;SDS011;32670;51.464;11.964;2023-08-06T06:08:05;2.23;;;1.03;;
46931;SDS011;32670;51.464;11.964;2023-08-06T06:10:30;1.10;;;1.00;;
46931;SDS011;32670;51.464;11.964;2023-08-06T06:12:56;3.57;;;1.00;;
46931;SDS011;32670;51.464;11.964;2023-08-06T06:15:21;3.50;;;1.20;;
46931;SDS011;32670;51.464;11.964;2023-08-06T06:17:47;2.23;;;1.00;;
46931;SDS011;32670;51.464;11.964;2023-08-06T06:20:12;2.87;;;1.23;;
46931;SDS011;32670;51.464;11.964;2023-08-06T06:22:38;3.37;;;1.10;;
46931;SDS011;32670;51.464;11.964;2023-08-06T06:25:04;1.77;;;1.17;;
46931;SDS011;32670;51.464;11.964;2023-08-06T06:27:30;1.73;;;1.13;;
46931;SDS011;32670;51.464;11.964;2023-08-06T06:29:55;2.97;;;1.10;;
46931;SDS011;32670;51.464;11.964;2023-08-06T06:32:21;2.10;;;1.17;;
46931;SDS011;32670;51.464;11.964;2023-08-06T06:34:47;1.33;;;0.93;;
46931;SDS011;32670;51.464;11.964;2023-08-06T06:37:12;1.30;;;1.20;;
46931;SDS011;32670;51.464;11.964;2023-08-06T06:39:38;1.20;;;1.10;;
46931;SDS011;32670;51.464;11.964;2023-08-06T06:42:04;1.10;;;1.00;;
46931;SDS011;32670;51.464;11.964;2023-08-06T06:44:29;1.30;;;1.20;;
46931;SDS011;32670;51.464;11.964;2023-08-06T06:46:55;1.23;;;1.03;;
46931;SDS011;32670;51.464;11.964;2023-08-06T06:49:20;1.50;;;1.20;;
46931;SDS011;32670;51.464;11.964;2023-08-06T06:51:46;2.03;;;1.17;;
46931;SDS011;32670;51.464;11.964;2023-08-06T06:54:11;1.23;;;1.13;;
46931;SDS011;32670;51.464;11.964;2023-08-06T06:56:37;1.27;;;1.10;;
46931;SDS011;32670;51.464;11.964;2023-08-06T06:59:03;1.23;;;1.00;;
46931;SDS011;32670;51.464;11.964;2023-08-06T07:01:28;1.23;;;1.13;;
46931;SDS011;32670;51.464;11.964;2023-08-06T07:03:54;1.00;;;1.00;;
46931;SDS011;32670;51.464;11.964;2023-08-06T07:06:19;0.97;;;0.97;;
46931;SDS011;32670;51.464;11.964;2023-08-06T07:08:45;1.40;;;1.10;;
46931;SDS011;32670;51.464;11.964;2023-08-06T07:11:10;1.50;;;1.00;;
46931;SDS011;32670;51.464;11.964;2023-08-06T07:13:36;2.60;;;1.10;;
46931;SDS011;32670;51.464;11.964;2023-08-06T07:16:02;1.77;;;1.10;;
46931;SDS011;32670;51.464;11.964;2023-08-06T07:18:27;8.43;;;1.80;;
46931;SDS011;32670;51.464;11.964;2023-08-06T07:20:53;14.57;;;1.60;;
46931;SDS011;32670;51.464;11.964;2023-08-06T07:23:20;7.43;;;1.30;;
46931;SDS011;32670;51.464;11.964;2023-08-06T07:25:46;2.77;;;1.30;;
46931;SDS011;32670;51.464;11.964;2023-08-06T07:28:13;4.80;;;1.20;;
46931;SDS011;32670;51.464;11.964;2023-08-06T07:30:39;3.83;;;1.50;;
46931;SDS011;32670;51.464;11.964;2023-08-06T07:33:05;1.90;;;1.37;;
46931;SDS011;32670;51.464;11.964;2023-08-06T07:35:31;2.70;;;1.40;;
46931;SDS011;32670;51.464;11.964;2023-08-06T07:37:56;1.30;;;1.20;;
46931;SDS011;32670;51.464;11.964;2023-08-06T07:40:22;3.20;;;1.43;;
46931;SDS011;32670;51.464;11.964;2023-08-06T07:42:47;1.43;;;1.20;;
46931;SDS011;32670;51.464;11.964;2023-08-06T07:45:13;1.30;;;1.20;;
46931;SDS011;32670;51.464;11.964;2023-08-06T07:47:39;1.80;;;1.30;;
46931;SDS011;32670;51.464;11.964;2023-08-06T07:50:05;3.37;;;1.70;;
46931;SDS011;32670;51.464;11.964;2023-08-06T07:52:31;1.90;;;1.40;;
46931;SDS011;32670;51.464;11.964;2023-08-06T07:54:56;1.87;;;1.60;;
46931;SDS011;32670;51.464;11.964;2023-08-06T07:57:22;1.60;;;1.50;;
46931;SDS011;32670;51.464;11.964;2023-08-06T07:59:47;3.57;;;2.17;;
46931;SDS011;32670;51.464;11.964;2023-08-06T08:02:13;1.83;;;1.60;;
46931;SDS011;32670;51.464;11.964;2023-08-06T08:04:38;3.13;;;1.93;;
46931;SDS011;32670;51.464;11.964;2023-08-06T08:07:04;2.33;;;2.03;;
46931;SDS011;32670;51.464;11.964;2023-08-06T08:09:29;2.57;;;2.00;;
46931;SDS011;32670;51.464;11.964;2023-08-06T08:11:55;3.07;;;1.80;;
46931;SDS011;32670;51.464;11.964;2023-08-06T08:14:21;1.77;;;1.67;;
46931;SDS011;32670;51.464;11.964;2023-08-06T08:16:46;1.93;;;1.70;;
46931;SDS011;32670;51.464;11.964;2023-08-06T08:19:12;1.93;;;1.77;;
46931;SDS011;32670;51.464;11.964;2023-08-06T08:21:37;2.13;;;1.70;;
46931;SDS011;32670;51.464;11.964;2023-08-06T08:24:03;2.20;;;1.73;;
46931;SDS011;32670;51.464;11.964;2023-08-06T08:26:29;3.70;;;1.53;;
46931;SDS011;32670;51.464;11.964;2023-08-06T08:28:55;1.53;;;1.40;;
46931;SDS011;32670;51.464;11.964;2023-08-06T08:31:21;1.50;;;1.40;;
46931;SDS011;32670;51.464;11.964;2023-08-06T08:33:47;2.13;;;1.80;;
46931;SDS011;32670;51.464;11.964;2023-08-06T08:36:13;3.30;;;2.20;;
46931;SDS011;32670;51.464;11.964;2023-08-06T08:38:38;2.30;;;2.03;;
46931;SDS011;32670;51.464;11.964;2023-08-06T08:41:04;2.27;;;1.93;;
46931;SDS011;32670;51.464;11.964;2023-08-06T08:43:29;2.07;;;1.87;;
46931;SDS011;32670;51.464;11.964;2023-08-06T08:45:56;2.70;;;1.90;;
46931;SDS011;32670;51.464;11.964;2023-08-06T08:48:23;2.10;;;1.90;;
46931;SDS011;32670;51.464;11.964;2023-08-06T08:50:50;2.43;;;1.97;;
46931;SDS011;32670;51.464;11.964;2023-08-06T08:53:16;2.20;;;2.00;;
46931;SDS011;32670;51.464;11.964;2023-08-06T08:55:43;4.50;;;2.07;;
46931;SDS011;32670;51.464;11.964;2023-08-06T08:58:11;2.43;;;2.23;;
46931;SDS011;32670;51.464;11.964;2023-08-06T09:00:37;2.47;;;2.03;;
46931;SDS011;32670;51.464;11.964;2023-08-06T09:03:05;1.97;;;1.87;;
46931;SDS011;32670;51.464;11.964;2023-08-06T09:05:31;2.43;;;2.20;;
46931;SDS011;32670;51.464;11.964;2023-08-06T09:07:59;1.90;;;1.80;;
46931;SDS011;32670;51.464;11.964;2023-08-06T09:10:28;2.30;;;2.10;;
46931;SDS011;32670;51.464;11.964;2023-08-06T09:12:53;2.27;;;1.83;;
46931;SDS011;32670;51.464;11.964;2023-08-06T09:15:24;2.87;;;2.43;;
46931;SDS011;32670;51.464;11.964;2023-08-06T09:17:50;2.57;;;2.00;;
46931;SDS011;32670;51.464;11.964;2023-08-06T09:20:17;2.17;;;1.97;;
46931;SDS011;32670;51.464;11.964;2023-08-06T09:22:42;2.47;;;2.13;;
46931;SDS011;32670;51.464;11.964;2023-08-06T09:25:09;2.30;;;2.10;;
46931;SDS011;32670;51.464;11.964;2023-08-06T09:27:37;2.47;;;2.13;;
46931;SDS011;32670;51.464;11.964;2023-08-06T09:30:03;2.30;;;2.10;;
46931;SDS011;32670;51.464;11.964;2023-08-06T09:32:46;2.50;;;2.30;;
46931;SDS011;32670;51.464;11.964;2023-08-06T09:35:16;2.40;;;2.13;;
46931;SDS011;32670;51.464;11.964;2023-08-06T09:37:42;2.30;;;2.10;;
46931;SDS011;32670;51.464;11.964;2023-08-06T09:42:55;2.17;;;1.97;;
46931;SDS011;32670;51.464;11.964;2023-08-06T09:45:22;2.30;;;2.10;;
46931;SDS011;32670;51.464;11.964;2023-08-06T09:47:49;2.23;;;2.03;;
46931;SDS011;32670;51.464;11.964;2023-08-06T09:50:20;2.00;;;1.90;;
46931;SDS011;32670;51.464;11.964;2023-08-06T09:52:46;2.30;;;2.10;;
46931;SDS011;32670;51.464;11.964;2023-08-06T09:55:15;2.47;;;2.17;;
46931;SDS011;32670;51.464;11.964;2023-08-06T09:57:41;2.33;;;2.13;;
46931;SDS011;32670;51.464;11.964;2023-08-06T10:00:08;3.47;;;2.30;;
46931;SDS011;32670;51.464;11.964;2023-08-06T10:02:36;2.50;;;2.30;;
46931;SDS011;32670;51.464;11.964;2023-08-06T10:05:03;2.10;;;2.00;;
46931;SDS011;32670;51.464;11.964;2023-08-06T10:07:29;2.13;;;2.00;;
46931;SDS011;32670;51.464;11.964;2023-08-06T10:09:55;2.13;;;2.00;;
46931;SDS011;32670;51.464;11.964;2023-08-06T10:12:21;2.10;;;2.00;;
46931;SDS011;32670;51.464;11.964;2023-08-06T10:14:49;2.17;;;1.97;;
46931;SDS011;32670;51.464;11.964;2023-08-06T10:17:18;2.50;;;2.30;;
46931;SDS011;32670;51.464;11.964;2023-08-06T10:19:44;2.40;;;2.20;;
46931;SDS011;32670;51.464;11.964;2023-08-06T10:22:15;2.53;;;2.10;;
46931;SDS011;32670;51.464;11.964;2023-08-06T10:24:52;2.50;;;2.30;;
46931;SDS011;32670;51.464;11.964;2023-08-06T10:27:20;2.00;;;1.80;;
46931;SDS011;32670;51.464;11.964;2023-08-06T10:33:01;3.20;;;2.10;;
46931;SDS011;32670;51.464;11.964;2023-08-06T10:37:57;2.53;;;2.20;;
46931;SDS011;32670;51.464;11.964;2023-08-06T10:40:23;2.20;;;2.00;;
46931;SDS011;32670;51.464;11.964;2023-08-06T10:42:50;2.10;;;2.00;;
46931;SDS011;32670;51.464;11.964;2023-08-06T10:45:17;2.30;;;2.10;;
46931;SDS011;32670;51.464;11.964;2023-08-06T10:47:43;2.37;;;2.17;;
46931;SDS011;32670;51.464;11.964;2023-08-06T10:50:14;2.13;;;2.03;;
46931;SDS011;32670;51.464;11.964;2023-08-06T10:52:44;2.00;;;1.80;;
46931;SDS011;32670;51.464;11.964;2023-08-06T10:55:10;2.00;;;1.90;;
46931;SDS011;32670;51.464;11.964;2023-08-06T10:57:36;2.23;;;2.10;;
46931;SDS011;32670;51.464;11.964;2023-08-06T11:00:03;1.97;;;1.87;;
46931;SDS011;32670;51.464;11.964;2023-08-06T11:02:32;2.30;;;2.10;;
46931;SDS011;32670;51.464;11.964;2023-08-06T11:05:04;2.30;;;2.10;;
46931;SDS011;32670;51.464;11.964;2023-08-06T11:07:30;2.10;;;2.00;;
46931;SDS011;32670;51.464;11.964;2023-08-06T11:10:02;2.20;;;2.00;;
46931;SDS011;32670;51.464;11.964;2023-08-06T11:12:32;2.20;;;2.00;;
46931;SDS011;32670;51.464;11.964;2023-08-06T11:14:58;2.27;;;2.07;;
46931;SDS011;32670;51.464;11.964;2023-08-06T11:17:24;2.53;;;2.33;;
46931;SDS011;32670;51.464;11.964;2023-08-06T11:19:50;2.33;;;2.17;;
46931;SDS011;32670;51.464;11.964;2023-08-06T11:22:17;2.40;;;2.20;;
46931;SDS011;32670;51.464;11.964;2023-08-06T11:24:43;2.37;;;2.10;;
46931;SDS011;32670;51.464;11.964;2023-08-06T11:27:15;2.00;;;1.80;;
46931;SDS011;32670;51.464;11.964;2023-08-06T11:29:42;2.57;;;2.37;;
46931;SDS011;32670;51.464;11.964;2023-08-06T11:32:08;2.83;;;2.07;;
46931;SDS011;32670;51.464;11.964;2023-08-06T11:34:34;2.10;;;2.00;;
46931;SDS011;32670;51.464;11.964;2023-08-06T11:37:00;1.97;;;1.87;;
46931;SDS011;32670;51.464;11.964;2023-08-06T11:39:27;2.00;;;1.90;;
46931;SDS011;32670;51.464;11.964;2023-08-06T11:41:53;2.10;;;1.90;;
46931;SDS011;32670;51.464;11.964;2023-08-06T11:44:20;1.93;;;1.83;;
46931;SDS011;32670;51.464;11.964;2023-08-06T11:46:51;2.40;;;2.10;;
46931;SDS011;32670;51.464;11.964;2023-08-06T11:49:36;2.63;;;2.43;;
46931;SDS011;32670;51.464;11.964;2023-08-06T11:54:46;2.60;;;2.40;;
46931;SDS011;32670;51.464;11.964;2023-08-06T11:57:12;3.20;;;2.90;;
46931;SDS011;32670;51.464;11.964;2023-08-06T11:59:41;2.70;;;2.50;;
46931;SDS011;32670;51.464;11.964;2023-08-06T12:02:08;3.00;;;2.70;;
46931;SDS011;32670;51.464;11.964;2023-08-06T12:07:28;2.83;;;2.63;;
46931;SDS011;32670;51.464;11.964;2023-08-06T12:09:55;2.90;;;2.70;;
46931;SDS011;32670;51.464;11.964;2023-08-06T12:12:21;2.40;;;2.20;;
46931;SDS011;32670;51.464;11.964;2023-08-06T12:14:46;2.70;;;2.50;;
46931;SDS011;32670;51.464;11.964;2023-08-06T12:17:12;3.50;;;3.20;;
46931;SDS011;32670;51.464;11.964;2023-08-06T12:19:37;3.47;;;3.17;;
46931;SDS011;32670;51.464;11.964;2023-08-06T12:22:03;3.40;;;3.10;;
46931;SDS011;32670;51.464;11.964;2023-08-06T12:24:28;3.57;;;3.20;;
46931;SDS011;32670;51.464;11.964;2023-08-06T12:26:56;3.10;;;2.83;;
46931;SDS011;32670;51.464;11.964;2023-08-06T12:29:22;3.50;;;3.20;;
46931;SDS011;32670;51.464;11.964;2023-08-06T12:31:48;3.57;;;3.27;;
46931;SDS011;32670;51.464;11.964;2023-08-06T12:34:14;3.00;;;2.80;;
46931;SDS011;32670;51.464;11.964;2023-08-06T12:36:39;4.13;;;3.23;;
46931;SDS011;32670;51.464;11.964;2023-08-06T12:39:04;3.30;;;3.00;;
46931;SDS011;32670;51.464;11.964;2023-08-06T12:41:30;3.37;;;3.07;;
46931;SDS011;32670;51.464;11.964;2023-08-06T12:43:55;2.93;;;2.63;;
46931;SDS011;32670;51.464;11.964;2023-08-06T12:46:21;3.10;;;2.80;;
46931;SDS011;32670;51.464;11.964;2023-08-06T12:48:46;6.27;;;4.80;;
46931;SDS011;32670;51.464;11.964;2023-08-06T12:51:13;5.13;;;4.63;;
46931;SDS011;32670;51.464;11.964;2023-08-06T12:53:39;5.13;;;4.30;;
46931;SDS011;32670;51.464;11.964;2023-08-06T12:56:04;4.30;;;3.90;;
46931;SDS011;32670;51.464;11.964;2023-08-06T12:58:30;4.73;;;4.33;;
46931;SDS011;32670;51.464;11.964;2023-08-06T13:00:56;4.47;;;4.00;;
46931;SDS011;32670;51.464;11.964;2023-08-06T13:03:21;4.30;;;3.90;;
46931;SDS011;32670;51.464;11.964;2023-08-06T13:05:47;4.27;;;3.90;;
46931;SDS011;32670;51.464;11.964;2023-08-06T13:08:12;4.37;;;3.97;;
46931;SDS011;32670;51.464;11.964;2023-08-06T13:10:38;4.50;;;4.10;;
46931;SDS011;32670;51.464;11.964;2023-08-06T13:13:03;4.03;;;3.67;;
46931;SDS011;32670;51.464;11.964;2023-08-06T13:15:30;4.23;;;3.73;;
46931;SDS011;32670;51.464;11.964;2023-08-06T13:17:55;4.10;;;3.70;;
46931;SDS011;32670;51.464;11.964;2023-08-06T13:20:21;4.30;;;3.90;;
46931;SDS011;32670;51.464;11.964;2023-08-06T13:22:47;5.27;;;3.73;;
46931;SDS011;32670;51.464;11.964;2023-08-06T13:25:18;3.53;;;3.23;;
46931;SDS011;32670;51.464;11.964;2023-08-06T13:27:44;3.90;;;3.60;;
46931;SDS011;32670;51.464;11.964;2023-08-06T13:30:10;5.07;;;3.70;;
46931;SDS011;32670;51.464;11.964;2023-08-06T13:32:36;4.30;;;3.90;;
46931;SDS011;32670;51.464;11.964;2023-08-06T13:35:02;4.20;;;3.73;;
46931;SDS011;32670;51.464;11.964;2023-08-06T13:37:29;4.03;;;3.70;;
46931;SDS011;32670;51.464;11.964;2023-08-06T13:39:54;4.87;;;3.90;;
46931;SDS011;32670;51.464;11.964;2023-08-06T13:42:20;3.70;;;3.40;;
46931;SDS011;32670;51.464;11.964;2023-08-06T13:44:45;3.90;;;3.57;;
46931;SDS011;32670;51.464;11.964;2023-08-06T13:47:12;3.90;;;3.60;;
46931;SDS011;32670;51.464;11.964;2023-08-06T13:49:37;3.70;;;3.40;;
46931;SDS011;32670;51.464;11.964;2023-08-06T13:52:03;3.80;;;3.50;;
46931;SDS011;32670;51.464;11.964;2023-08-06T13:54:29;4.10;;;3.80;;
46931;SDS011;32670;51.464;11.964;2023-08-06T13:56:54;3.80;;;3.50;;
46931;SDS011;32670;51.464;11.964;2023-08-06T13:59:20;3.97;;;3.60;;
46931;SDS011;32670;51.464;11.964;2023-08-06T14:01:45;3.80;;;3.50;;
46931;SDS011;32670;51.464;11.964;2023-08-06T14:04:12;3.70;;;3.40;;
46931;SDS011;32670;51.464;11.964;2023-08-06T14:06:38;3.83;;;3.47;;
46931;SDS011;32670;51.464;11.964;2023-08-06T14:09:03;3.93;;;3.63;;
46931;SDS011;32670;51.464;11.964;2023-08-06T14:11:29;4.93;;;4.53;;
46931;SDS011;32670;51.464;11.964;2023-08-06T14:13:55;5.00;;;4.30;;
46931;SDS011;32670;51.464;11.964;2023-08-06T14:16:20;4.43;;;3.93;;
46931;SDS011;32670;51.464;11.964;2023-08-06T14:18:45;5.97;;;4.27;;
46931;SDS011;32670;51.464;11.964;2023-08-06T14:21:11;4.73;;;4.33;;
46931;SDS011;32670;51.464;11.964;2023-08-06T14:23:36;4.57;;;4.17;;
46931;SDS011;32670;51.464;11.964;2023-08-06T14:26:02;4.20;;;3.80;;
46931;SDS011;32670;51.464;11.964;2023-08-06T14:28:27;4.40;;;4.00;;
46931;SDS011;32670;51.464;11.964;2023-08-06T14:30:53;4.33;;;4.03;;
46931;SDS011;32670;51.464;11.964;2023-08-06T14:33:18;4.40;;;4.00;;
46931;SDS011;32670;51.464;11.964;2023-08-06T14:35:44;4.37;;;3.97;;
46931;SDS011;32670;51.464;11.964;2023-08-06T14:38:10;4.33;;;3.93;;
46931;SDS011;32670;51.464;11.964;2023-08-06T14:40:35;4.50;;;4.10;;
46931;SDS011;32670;51.464;11.964;2023-08-06T14:43:03;4.50;;;4.10;;
46931;SDS011;32670;51.464;11.964;2023-08-06T14:45:30;4.40;;;4.03;;
46931;SDS011;32670;51.464;11.964;2023-08-06T14:47:55;4.00;;;3.70;;